Latest Coastal Weather Observations for Williamtown

IDN60701

Issued at 7:25 am EDT Tuesday 25 November 2014 (issued every 10 minutes, with the page automatically refreshed every 10 minutes)

About coastal observations | Map of coastal stations | Coastal observations for NSW | Marine services | Other Formats
Station Details ID: 061078 Name: WILLIAMTOWN RAAF Lat: -32.79 Lon: 151.84 Height: 9.0 m
Data from the previous 72 hours. | See also: Recent months at Williamtown
Date/Time
EDT
Temp

°C
Wind Pressure Rain
since 9am
mm
Weather Cloud Vis
km
Sea
Height
m
Swell
Dir
 
Speed
knots
Gust
knots
hPa Trend Height
m
Period
s
Dir
25/07:00am 23.1 WNW 13 17 1011.1 - 17.4 - Mostly clear 10 - - - -
25/06:30am 22.9 WNW 13 18 1010.8 - 17.4 Showers Partly cloudy 10 - - - -
25/06:00am 22.9 WNW 14 18 1010.6 R 17.4 Distant precip. Mostly cloudy 30 - - - -
25/05:30am 22.6 NW 9 13 1010.2 - 17.4 - - 10 - - - -
25/05:00am 22.9 NNW 7 10 1010.1 - 17.4 - - 10 - - - -
25/04:30am 22.7 NNW 6 9 1010.0 - 17.0 - - 10 - - - -
25/04:00am 22.8 NNW 8 10 1010.2 - 17.0 - - 10 - - - -
25/03:30am 22.6 NNW 5 8 1009.8 - 17.0 - - 10 - - - -
25/03:00am 22.6 NW 3 6 1009.6 - 17.0 - - 10 - - - -
25/02:30am 22.4 N 4 5 1010.0 - 17.0 - - 10 - - - -
25/02:00am 22.5 CALM 0 3 1010.1 - 17.0 - - 10 - - - -
25/01:30am 22.8 WNW 7 10 1010.1 - 16.8 - - 10 - - - -
25/01:00am 23.0 WNW 11 15 1010.5 - 16.4 - - 10 - - - -
25/12:30am 22.9 W 11 16 1011.3 - 15.6 - - 10 - - - -
25/12:00am 22.7 WNW 7 9 1011.0 - 14.6 - - 10 - - - -
 
Date/Time
EDT
Temp

°C
Wind Pressure Rain
since 9am
mm
Weather Cloud Vis
km
Sea
Height
m
Swell
Dir
 
Speed
knots
Gust
knots
hPa Trend Height
m
Period
s
Dir
24/11:30pm 22.7 N 8 11 1011.1 - 14.6 - - 8 - - - -
24/11:00pm 22.5 NNW 3 5 1010.3 - 13.4 - - 10 - - - -
24/10:30pm 22.4 N 4 6 1009.9 - 13.4 - - 10 - - - -
24/10:00pm 22.4 CALM 0 0 1009.2 - 13.4 - - 10 - - - -
24/09:30pm 22.5 CALM 0 0 1008.8 - 13.4 - - 10 - - - -
24/09:00pm 22.6 CALM 0 0 1009.0 - 13.0 - - 10 - - - -
24/08:30pm 22.6 NE 5 7 1009.1 - 12.8 - - 10 - - - -
24/08:06pm 22.5 N 7 10 1010.3 - 12.2 - - 10 - - - -
24/08:00pm 22.6 NNW 6 8 1010.2 - 12.2 - Mostly clear 10 - - - -
24/07:38pm 22.7 NW 15 20 1011.5 - 8.8 Thunderstorm Partly cloudy 3 - - - -
24/07:30pm 22.7 E 7 11 1008.2 - 8.8 - Mostly clear 10 - - - -
24/07:00pm 23.8 E 8 12 1007.5 - 8.8 Thunder Mostly clear 8 - - - -
24/06:30pm 23.6 SSW 13 17 1007.7 - 8.2 Thunderstorm Mostly clear 4 - - - -
24/06:29pm 23.5 SSW 12 16 1007.9 - 8.2 Thunderstorm Mostly clear 6 - - - -
24/06:07pm 22.3 WSW 18 28 1007.8 - 8.2 - Mostly clear 10 - - - -
24/06:00pm 22.7 CALM 0 0 1005.4 - 8.2 - Mostly clear 10 - - - -
24/05:30pm 21.9 SSW 9 12 1005.4 - 8.2 - Mostly clear 10 - - - -
24/05:16pm 21.3 ENE 13 19 1006.5 - 8.2 Thunder Mostly clear 10 - - - -
24/05:00pm 21.4 N 11 19 1007.8 - 8.0 Thunderstorm Mostly clear 6 - - - -
24/04:55pm 21.1 NNW 13 19 1008.8 - 6.8 Thunderstorm Mostly clear 5 - - - -
24/04:49pm 19.4 NNW 37 53 1008.7 - 3.2 - - 3 - - - -
24/04:48pm 20.0 NNW 22 53 1008.9 - 1.2 Thunderstorm Partly cloudy 2 - - - -
24/04:46pm 23.9 NNW 19 28 1009.2 - 0.4 Thunderstorm Partly cloudy 2 - - - -
24/04:41pm 26.4 WNW 17 26 1009.9 - 0.2 Thunderstorm Partly cloudy 6 - - - -
24/04:36pm 25.4 WNW 15 25 1009.5 - 0.2 Thunder Partly cloudy 10 - - - -
24/04:30pm 24.4 SSE 9 10 1006.8 - 0.2 Thunder Mostly clear 10 - - - -
24/04:00pm 25.5 E 10 13 1006.3 - 0.2 - Mostly clear 10 - - - -
24/03:30pm 26.7 SE 11 15 1006.5 - 0.2 - Mostly clear 10 - - - -
24/03:00pm 26.7 SE 10 14 1007.6 F 0.2 Haze Partly cloudy 15 - - - -
24/02:30pm 25.9 ESE 10 13 1008.6 - 0.2 - Mostly clear 10 - - - -
24/02:00pm 25.1 SE 10 13 1009.6 - 0.2 - Mostly clear 10 - - - -
24/01:30pm 24.4 SE 9 13 1010.3 - 0.2 - Mostly clear 10 - - - -
24/01:00pm 24.5 SE 8 13 1011.0 - 0.2 - Mostly clear 10 - - - -
24/12:30pm 23.8 SSE 9 13 1011.4 - 0.2 - Partly cloudy 10 - - - -
24/12:00pm 23.4 SE 11 14 1011.9 F 0.2 Haze Mostly cloudy 15 - - - -
24/11:30am 23.2 S 8 11 1013.0 - 0.2 - Mostly cloudy 10 - - - -
24/11:00am 23.7 SSE 10 13 1013.1 - 0.2 - Partly cloudy 10 - - - -
24/10:30am 23.9 SSE 11 16 1013.3 - 0.0 - Partly cloudy 10 - - - -
24/10:00am 23.2 S 13 16 1013.9 - 0.0 - Partly cloudy 10 - - - -
24/09:30am 22.8 S 13 16 1014.3 - 0.0 - Mostly clear 10 - - - -
24/09:00am 23.4 S 11 15 1014.1 R 12.6 Haze Partly cloudy 15 - - - -
24/08:30am 23.0 S 11 15 1014.0 - 12.6 - Mostly clear 10 - - - -
24/08:00am 22.6 SSW 6 9 1014.2 - 12.6 - Partly cloudy 10 - - - -
24/07:30am 22.1 S 10 14 1013.4 - 12.6 - Mostly cloudy 7 - - - -
24/07:00am 21.4 S 6 8 1013.3 - 12.6 - Mostly cloudy 7 - - - -
24/06:30am 21.1 S 9 12 1013.2 - 12.6 - Partly cloudy 6 - - - -
24/06:00am 20.9 SSE 8 9 1012.9 F 12.6 Mist Partly cloudy 6 - - - -
24/05:30am 20.3 SW 6 8 1013.1 - 12.6 - - 5 - - - -
24/05:12am 20.3 WNW 4 6 1013.0 - 12.6 - - 6 - - - -
24/05:00am 20.5 CALM 0 0 1012.8 - 12.6 - - 7 - - - -
24/04:30am 21.0 CALM 0 0 1012.4 - 12.6 - - 8 - - - -
24/04:00am 21.5 SSE 6 8 1012.5 - 12.6 - - 10 - - - -
24/03:30am 21.7 SE 9 13 1012.5 - 12.6 - - 10 - - - -
24/03:00am 21.8 E 9 12 1012.6 - 12.6 - - 10 - - - -
24/02:30am 21.8 ESE 6 9 1011.9 - 12.6 - - 10 - - - -
24/02:00am 21.9 ESE 6 8 1011.6 - 12.6 - - 10 - - - -
24/01:30am 21.8 NE 8 12 1012.3 - 12.6 - - 10 - - - -
24/01:00am 22.1 S 6 8 1011.8 - 12.6 - - 10 - - - -
24/12:30am 21.7 W 5 8 1012.6 - 12.6 - - 10 - - - -
24/12:00am 21.5 S 5 8 1012.6 - 12.6 - - 9 - - - -
 
Date/Time
EDT
Temp

°C
Wind Pressure Rain
since 9am
mm
Weather Cloud Vis
km
Sea
Height
m
Swell
Dir
 
Speed
knots
Gust
knots
hPa Trend Height
m
Period
s
Dir
23/11:30pm 21.7 S 2 6 1014.0 - 12.6 - - 9 - - - -
23/11:00pm 22.1 SSW 6 9 1014.2 - 12.6 - - 10 - - - -
23/10:30pm 24.9 SSW 17 23 1013.9 - 12.6 - - 10 - - - -
23/10:25pm 26.8 SSW 15 23 1013.7 - 12.6 - - 10 - - - -
23/10:00pm 27.2 ENE 9 13 1011.8 - 12.6 - - 10 - - - -
23/09:30pm 26.9 E 10 13 1011.0 - 12.6 - - - - - - -
23/09:00pm 28.7 NE 11 15 1010.6 - 12.6 - - 10 - - - -
23/08:30pm 26.6 E 14 22 1010.8 - 12.6 - - 10 - - - -
23/08:20pm 25.8 E 15 19 1011.2 - 12.6 - - 10 - - - -
23/08:07pm 27.5 E 19 27 1010.5 - 12.6 - - 3 - - - -
23/08:00pm 25.9 E 17 20 1011.3 - 12.4 - - - - - - -
23/07:37pm 23.8 S 11 23 1012.4 - 9.4 - Partly cloudy 2 - - - -
23/07:30pm 23.8 WSW 23 33 1012.0 - 2.2 - Partly cloudy 5 - - - -
23/07:26pm 26.1 WSW 23 33 1011.8 - 0.2 - Partly cloudy 10 - - - -
23/07:22pm 31.5 SW 20 30 1011.2 - 0.0 - - 10 - - - -
23/07:00pm 32.7 S 15 23 1009.0 - 0.0 - - 10 - - - -
23/06:52pm 33.5 S 13 18 1008.7 - 0.0 - - 10 - - - -
23/06:30pm 34.6 NE 11 16 1006.7 - 0.0 - - 10 - - - -
23/06:00pm 35.9 NE 9 17 1006.6 - 0.0 - - 10 - - - -
23/05:30pm 35.7 NE 16 21 1006.5 - 0.0 - - 10 - - - -
23/05:00pm 35.0 NE 15 20 1006.6 - 0.0 - - 10 - - - -
23/04:30pm 35.1 NE 14 17 1006.8 - 0.0 - - 10 - - - -
23/04:00pm 37.8 NE 11 15 1007.0 - 0.0 - - 10 - - - -
23/03:30pm 37.5 ENE 14 17 1007.5 - 0.0 - - 10 - - - -
23/03:00pm 36.8 ENE 11 14 1008.2 F 0.0 Haze Partly cloudy 20 - - - -
23/02:30pm 38.0 NE 8 11 1008.6 - 0.0 - - 10 - - - -
23/02:00pm 37.6 ENE 7 10 1009.1 - 0.0 - - 10 - - - -
23/01:30pm 38.6 N 4 7 1009.6 - 0.0 - - 10 - - - -
23/01:00pm 36.8 N 5 9 1010.1 - 0.0 - - 10 - - - -
23/12:30pm 35.3 N 5 9 1010.6 - 0.0 - - 10 - - - -
23/12:00pm 33.2 NNW 6 8 1011.1 F 0.0 Haze Mostly clear 20 - - - -
23/11:30am 32.7 NNW 5 8 1011.3 - 0.0 - - 10 - - - -
23/11:00am 30.0 N 6 8 1011.6 - 0.0 - - 10 - - - -
23/10:30am 29.5 NW 6 9 1011.6 - 0.0 - - 10 - - - -
23/10:00am 27.8 WNW 8 10 1012.0 - 0.0 - - 10 - - - -
23/09:30am 25.1 NW 8 10 1012.2 - 0.0 - - 10 - - - -
23/09:00am 23.8 N 5 7 1012.2 S 0.0 Haze Partly cloudy 10 - - - -
23/08:30am 22.1 WNW 5 8 1012.4 - - - Partly cloudy 10 - - - -
23/08:00am 21.0 NW 6 9 1012.2 - - - Mostly cloudy 9 - - - -
23/07:30am 20.1 N 5 7 1011.7 - - Mist Mostly cloudy 3 - - - -
23/07:00am 19.9 NW 5 7 1011.5 - - Mist Mostly cloudy 4 - - - -
23/06:30am 19.9 WNW 6 9 1011.6 - - Mist Mostly cloudy 2 - - - -
23/06:00am 19.9 W 5 6 1011.3 F - Mist Mostly cloudy 2 - - - -
23/05:32am 19.7 WNW 6 7 1011.1 - - - Cloudy 1 - - - -
23/05:30am 19.7 WNW 6 7 1011.1 - - - Cloudy 0.9 - - - -
23/05:00am 19.7 WNW 6 8 1010.8 - - - Cloudy 0.6 - - - -
23/04:30am 19.8 W 4 6 1010.8 - - - Cloudy 0.3 - - - -
23/04:00am 19.9 W 3 7 1010.9 - - - Cloudy 0.5 - - - -
23/03:30am 20.0 W 4 7 1010.7 - - - Cloudy 0.9 - - - -
23/03:00am 20.2 SW 2 4 1011.0 - - - Cloudy 1 - - - -
23/02:30am 20.1 CALM 0 0 1011.1 - - - Cloudy 1 - - - -
23/02:23am 20.0 SW 3 5 1011.2 - - - Cloudy 1 - - - -
23/02:00am 20.1 SSW 4 7 1011.5 - - - Cloudy 0.2 - - - -
23/01:36am 20.0 SSW 5 6 1011.6 - - - Cloudy 0.9 - - - -
23/01:30am 20.0 SSW 6 7 1011.6 - - - Cloudy 2 - - - -
23/01:00am 20.2 SSW 5 6 1011.6 - - - Cloudy 3 - - - -
23/12:30am 20.3 S 7 8 1012.2 - - - Cloudy 3 - - - -
23/12:00am 20.5 S 7 9 1012.6 - - - Cloudy 5 - - - -
 
Date/Time
EDT
Temp

°C
Wind Pressure Rain
since 9am
mm
Weather Cloud Vis
km
Sea
Height
m
Swell
Dir
 
Speed
knots
Gust
knots
hPa Trend Height
m
Period
s
Dir
22/11:56pm 20.6 S 7 9 1012.7 - - - Cloudy 6 - - - -
22/11:30pm 20.7 S 7 8 1012.6 - - - Cloudy 8 - - - -
22/11:00pm 20.7 S 5 6 1012.7 - - - Cloudy 10 - - - -
22/10:30pm 20.7 E 6 8 1012.4 - - - Cloudy 9 - - - -
22/10:00pm 20.7 E 5 8 1012.6 - - - Cloudy 9 - - - -
22/09:30pm 20.7 ENE 6 12 1012.5 - - - Cloudy 10 - - - -
22/09:00pm 20.4 E 5 8 1012.4 - - - Partly cloudy 10 - - - -
22/08:30pm 20.3 ENE 7 10 1011.9 - - - - 8 - - - -
22/08:00pm 20.4 E 9 13 1012.0 - - - - 8 - - - -
22/07:30pm 20.7 E 11 14 1011.8 - - - - 9 - - - -
22/07:00pm 21.1 ESE 9 11 1011.6 - - - - 10 - - - -
22/06:30pm 21.7 ESE 10 14 1011.3 - - - - 10 - - - -
22/06:00pm 22.4 ESE 11 14 1010.9 - - - - - - - - -
22/05:30pm 23.2 ESE 11 14 1010.8 - - - - - - - - -
22/05:00pm 23.7 ESE 12 15 1010.5 - - - - - - - - -
22/04:30pm 24.7 SE 12 16 1010.8 - - - - - - - - -
22/04:00pm 24.9 ESE 11 15 1011.2 - - - - 10 - - - -
22/03:30pm 25.4 ESE 12 15 1011.6 - - - - 10 - - - -
22/03:00pm 24.7 SE 13 16 1012.2 - - - - 10 - - - -
22/02:30pm 25.3 SE 10 15 1012.6 - - - - - - - - -
22/02:00pm 25.4 SE 9 15 1012.9 - - - - 10 - - - -
22/01:30pm 25.0 SE 8 12 1013.1 - - - - 10 - - - -
22/01:00pm 24.0 SE 9 14 1013.7 - - - - 10 - - - -
22/12:30pm 24.2 SSE 11 15 1014.3 - - - Partly cloudy 10 - - - -
22/12:00pm 23.2 S 10 14 1014.8 - - - Cloudy 10 - - - -
22/11:30am 23.7 SSW 11 12 1015.1 - - - Cloudy 10 - - - -
22/11:00am 23.4 SSW 8 11 1015.5 - - - Partly cloudy 10 - - - -
22/10:30am 22.6 SW 6 10 1015.5 - - - Partly cloudy 10 - - - -
22/10:00am 21.6 SW 7 9 1015.6 - - - Partly cloudy 10 - - - -
22/08:36am 20.2 SW 9 13 1016.0 - 0.0 - Partly cloudy 10 - - - -
22/08:30am 20.1 SSW 9 13 1016.1 - 0.0 - Partly cloudy 10 - - - -
22/08:00am 19.6 SSW 9 15 1015.9 - 0.0 - Partly cloudy 10 - - - -
22/07:47am 19.5 SSW 10 15 1015.6 - 0.0 - Partly cloudy 10 - - - -
22/07:30am 19.2 SSW 10 14 1015.4 - 0.0 - Partly cloudy 10 - - - -

Other Formats:

Comma delimited format used in spreadsheet applications
http://www.bom.gov.au/fwo/IDN60701/IDN60701.94776.axf

JavaScript Object Notation format (JSON) in row-major order
http://www.bom.gov.au/fwo/IDN60701/IDN60701.94776.json